Time;durP1;ratioP1;P1;durP2;ratioP2;P2;SDS_P1;SDS_P2;PMS_P1;PMS_P2;Temp;Humidity;BMP_temperature;BMP_pressure;BME280_temperature;BME280_humidity;BME280_pressure;Samples;Min_cycle;Max_cycle;Signal;HPM_P1;HPM_P2
2023/11/28 00:00:26;;;;;;;13.50;8.07;;;3.40;99.90;;;;;;5032568;28;20498;-61
2023/11/28 00:02:52;;;;;;;12.82;7.97;;;3.40;99.90;;;;;;5031134;28;20104;-60
2023/11/28 00:05:18;;;;;;;13.15;7.65;;;3.40;99.90;;;;;;5026612;28;20404;-60
2023/11/28 00:07:44;;;;;;;13.63;7.45;;;3.30;99.90;;;;;;5026475;28;20048;-60
2023/11/28 00:10:09;;;;;;;10.98;7.00;;;3.20;99.90;;;;;;5025617;28;20092;-59
2023/11/28 00:12:35;;;;;;;11.38;7.00;;;3.10;99.90;;;;;;5027549;28;20033;-61
2023/11/28 00:15:01;;;;;;;12.77;7.53;;;3.00;99.90;;;;;;5030505;28;20017;-61
2023/11/28 00:17:27;;;;;;;10.68;6.43;;;3.10;99.90;;;;;;5029891;28;20381;-61
2023/11/28 00:19:52;;;;;;;11.88;6.97;;;3.10;99.90;;;;;;5031892;28;20060;-61
2023/11/28 00:22:18;;;;;;;12.60;7.03;;;2.90;99.90;;;;;;5028257;28;20033;-61
2023/11/28 00:24:43;;;;;;;11.10;5.63;;;2.90;99.90;;;;;;5027950;28;20029;-61
2023/11/28 00:27:10;;;;;;;11.88;6.43;;;2.90;99.90;;;;;;5029164;28;20033;-61
2023/11/28 00:29:35;;;;;;;14.77;8.35;;;2.90;99.90;;;;;;5028247;28;20551;-60
2023/11/28 00:32:01;;;;;;;13.60;7.90;;;2.90;99.90;;;;;;5029120;28;20034;-61
2023/11/28 00:34:27;;;;;;;21.52;9.32;;;2.80;99.90;;;;;;5028915;28;20030;-61
2023/11/28 00:36:52;;;;;;;17.70;8.98;;;2.70;99.90;;;;;;5024128;28;20029;-60
2023/11/28 00:39:18;;;;;;;20.00;9.82;;;2.60;99.90;;;;;;5026957;28;20029;-60
2023/11/28 00:41:45;;;;;;;19.88;9.57;;;2.60;99.90;;;;;;5027710;28;20060;-59
2023/11/28 00:44:11;;;;;;;23.95;9.70;;;2.60;99.90;;;;;;5026052;28;20558;-59
2023/11/28 00:46:43;;;;;;;25.42;10.48;;;2.50;99.90;;;;;;5029326;28;20029;-60
2023/11/28 00:49:12;;;;;;;24.17;10.68;;;2.50;99.90;;;;;;5026298;28;20116;-59
2023/11/28 00:51:42;;;;;;;22.17;10.35;;;2.50;99.90;;;;;;5026186;28;20037;-60
2023/11/28 00:54:08;;;;;;;24.00;10.50;;;2.40;99.90;;;;;;5028565;28;20025;-60
2023/11/28 00:56:34;;;;;;;24.85;10.00;;;2.40;99.90;;;;;;5031586;28;20063;-60
2023/11/28 00:58:59;;;;;;;26.77;11.68;;;2.40;99.90;;;;;;5026601;28;20112;-59
2023/11/28 01:01:25;;;;;;;26.83;11.40;;;2.40;99.90;;;;;;5032134;28;20387;-61
2023/11/28 01:03:50;;;;;;;24.77;11.18;;;2.30;99.90;;;;;;5032785;28;20028;-58
2023/11/28 01:06:16;;;;;;;21.13;9.95;;;2.30;99.90;;;;;;5026440;28;20030;-60
2023/11/28 01:08:41;;;;;;;21.05;9.55;;;2.20;99.90;;;;;;5028309;28;20037;-58
2023/11/28 01:11:07;;;;;;;17.45;8.88;;;2.20;99.90;;;;;;5030233;28;20064;-59
2023/11/28 01:13:33;;;;;;;20.10;9.60;;;2.20;99.90;;;;;;5033703;28;20505;-59
2023/11/28 01:15:58;;;;;;;19.73;9.20;;;2.20;99.90;;;;;;5033902;28;20037;-59
2023/11/28 01:18:24;;;;;;;21.58;9.50;;;2.20;99.90;;;;;;5032929;28;20069;-60
2023/11/28 01:20:49;;;;;;;22.60;10.30;;;2.20;99.90;;;;;;5026310;28;20033;-60
2023/11/28 01:23:16;;;;;;;15.55;8.50;;;2.20;99.90;;;;;;5029093;28;20029;-60
2023/11/28 01:25:41;;;;;;;18.98;8.90;;;2.10;99.90;;;;;;5030715;28;20500;-60
2023/11/28 01:28:07;;;;;;;17.27;8.88;;;2.10;99.90;;;;;;5031587;28;20091;-59
2023/11/28 01:30:33;;;;;;;22.45;9.65;;;2.10;99.90;;;;;;5032493;28;20033;-61
2023/11/28 01:32:58;;;;;;;18.75;9.05;;;2.10;99.90;;;;;;5036583;28;20747;-60
2023/11/28 01:35:24;;;;;;;19.40;9.73;;;2.20;99.90;;;;;;5030952;28;20055;-61
2023/11/28 01:37:50;;;;;;;15.63;8.32;;;2.20;99.90;;;;;;5026818;28;20025;-60
2023/11/28 01:40:15;;;;;;;17.02;7.65;;;2.20;99.90;;;;;;5025786;28;20034;-58
2023/11/28 01:42:41;;;;;;;17.45;8.93;;;2.20;99.90;;;;;;5027142;28;20026;-61
2023/11/28 01:45:06;;;;;;;19.23;9.05;;;2.20;99.90;;;;;;5035014;28;20033;-61
2023/11/28 01:47:35;;;;;;;16.45;7.50;;;2.10;99.90;;;;;;5033118;28;20026;-59
2023/11/28 01:50:02;;;;;;;16.50;8.15;;;2.10;99.90;;;;;;5026835;28;20033;-61
2023/11/28 01:52:31;;;;;;;16.85;8.00;;;2.10;99.90;;;;;;5026430;28;20022;-60
2023/11/28 01:54:57;;;;;;;19.00;8.70;;;2.00;99.90;;;;;;5031814;28;20064;-59
2023/11/28 01:57:23;;;;;;;16.95;7.82;;;2.00;99.90;;;;;;5027027;28;20029;-59
2023/11/28 01:59:50;;;;;;;18.67;8.45;;;2.00;99.90;;;;;;5026304;28;20021;-60
2023/11/28 02:02:16;;;;;;;20.10;9.43;;;2.00;99.90;;;;;;5025466;28;20112;-59
2023/11/28 02:04:42;;;;;;;21.23;10.07;;;2.00;99.90;;;;;;5029073;28;20096;-59
2023/11/28 02:07:07;;;;;;;19.63;10.00;;;2.00;99.90;;;;;;5029976;28;20507;-60
2023/11/28 02:09:33;;;;;;;21.25;10.82;;;2.00;99.90;;;;;;5028486;28;20403;-60
2023/11/28 02:11:59;;;;;;;21.85;10.65;;;2.00;99.90;;;;;;5033145;28;20040;-61
2023/11/28 02:14:24;;;;;;;20.88;10.52;;;1.90;99.90;;;;;;5029180;28;20104;-61
2023/11/28 02:16:50;;;;;;;18.85;9.45;;;2.00;99.90;;;;;;5029720;28;20391;-60
2023/11/28 02:19:15;;;;;;;20.02;10.02;;;2.00;99.90;;;;;;5028895;28;20446;-60
2023/11/28 02:21:41;;;;;;;22.20;9.77;;;2.10;99.90;;;;;;5030891;28;20460;-61
2023/11/28 02:24:11;;;;;;;21.38;9.98;;;2.10;99.90;;;;;;5034430;28;20029;-59
2023/11/28 02:26:36;;;;;;;20.17;9.55;;;2.10;99.90;;;;;;5036186;28;20051;-61
2023/11/28 02:29:02;;;;;;;22.38;10.55;;;2.10;99.90;;;;;;5027307;28;20483;-59
2023/11/28 02:31:27;;;;;;;19.85;10.15;;;2.10;99.90;;;;;;5031758;28;20029;-61
2023/11/28 02:33:53;;;;;;;20.65;9.55;;;2.10;99.90;;;;;;5028170;28;20033;-61
2023/11/28 02:36:19;;;;;;;24.90;10.93;;;2.10;99.90;;;;;;5025574;28;20032;-60
2023/11/28 02:38:45;;;;;;;19.88;10.65;;;2.20;99.90;;;;;;5028934;28;20024;-60
2023/11/28 02:41:11;;;;;;;20.58;9.55;;;2.20;99.90;;;;;;5029737;28;20014;-61
2023/11/28 02:43:36;;;;;;;22.35;10.65;;;2.20;99.90;;;;;;5029268;28;20438;-61
2023/11/28 02:46:02;;;;;;;22.10;10.95;;;2.20;99.90;;;;;;5031148;28;20487;-60
2023/11/28 02:48:28;;;;;;;22.35;10.57;;;2.20;99.90;;;;;;5026016;28;20140;-60
2023/11/28 02:50:54;;;;;;;21.65;10.65;;;2.20;99.90;;;;;;5032198;28;20033;-62
2023/11/28 02:53:19;;;;;;;23.67;11.55;;;2.30;99.90;;;;;;5025667;28;20439;-61
2023/11/28 02:55:45;;;;;;;24.38;10.98;;;2.30;99.90;;;;;;5033584;28;20086;-63
2023/11/28 02:58:11;;;;;;;21.33;11.30;;;2.30;99.90;;;;;;5023271;28;20025;-60
2023/11/28 03:00:37;;;;;;;21.05;10.32;;;2.30;99.90;;;;;;5024263;28;20072;-62
2023/11/28 03:03:02;;;;;;;21.15;11.32;;;2.30;99.90;;;;;;5026693;28;20029;-58
2023/11/28 03:05:28;;;;;;;25.90;11.63;;;2.30;99.90;;;;;;5030501;28;20423;-58
2023/11/28 03:07:53;;;;;;;19.83;10.70;;;2.30;99.90;;;;;;5032232;28;20163;-61
2023/11/28 03:10:19;;;;;;;19.38;10.40;;;2.40;99.90;;;;;;5025493;28;20038;-60
2023/11/28 03:12:45;;;;;;;19.52;10.75;;;2.40;99.90;;;;;;5028151;28;20119;-61
2023/11/28 03:15:10;;;;;;;21.15;10.68;;;2.30;99.90;;;;;;5028191;28;20025;-59
2023/11/28 03:17:36;;;;;;;17.98;10.10;;;2.40;99.90;;;;;;5030106;28;20063;-60
2023/11/28 03:20:03;;;;;;;18.23;10.68;;;2.30;99.90;;;;;;5021820;28;20036;-61
2023/11/28 03:22:28;;;;;;;15.75;9.25;;;2.40;99.90;;;;;;5025125;28;20024;-61
2023/11/28 03:24:54;;;;;;;16.10;9.90;;;2.30;99.90;;;;;;5026458;28;20026;-62
2023/11/28 03:27:20;;;;;;;14.45;9.13;;;2.30;99.90;;;;;;5026809;28;20053;-61
2023/11/28 03:29:46;;;;;;;13.85;8.65;;;2.30;99.90;;;;;;5028100;28;20018;-61
2023/11/28 03:32:11;;;;;;;13.05;7.72;;;2.30;99.90;;;;;;5027504;28;20103;-61
2023/11/28 03:34:40;;;;;;;14.27;8.48;;;2.20;99.90;;;;;;5028532;28;20439;-62
2023/11/28 03:37:06;;;;;;;11.70;7.40;;;2.20;99.90;;;;;;5028978;28;20029;-60
2023/11/28 03:39:32;;;;;;;12.02;7.57;;;2.30;99.90;;;;;;5029610;28;20048;-60
2023/11/28 03:41:57;;;;;;;11.23;7.68;;;2.20;99.90;;;;;;5029096;28;20021;-62
2023/11/28 03:44:23;;;;;;;11.48;7.50;;;2.20;99.90;;;;;;5028650;28;20029;-60
2023/11/28 03:46:48;;;;;;;12.27;7.95;;;2.20;99.90;;;;;;5028955;28;20036;-60
2023/11/28 03:49:14;;;;;;;11.23;7.05;;;2.20;99.90;;;;;;5027117;28;20396;-62
2023/11/28 03:51:39;;;;;;;12.23;7.97;;;2.20;99.90;;;;;;5030523;28;20048;-61
2023/11/28 03:54:05;;;;;;;15.23;7.88;;;2.20;99.90;;;;;;5023499;28;20022;-60
2023/11/28 03:56:31;;;;;;;10.75;7.53;;;2.20;99.90;;;;;;5026308;28;20021;-61
2023/11/28 03:58:56;;;;;;;10.32;7.28;;;2.20;99.90;;;;;;5027885;28;20025;-61
2023/11/28 04:01:25;;;;;;;10.25;6.97;;;2.20;99.90;;;;;;5025128;28;20086;-61
2023/11/28 04:03:50;;;;;;;11.85;7.80;;;2.20;99.90;;;;;;5028961;28;20025;-62
2023/11/28 04:06:16;;;;;;;13.05;8.23;;;2.20;99.90;;;;;;5026787;28;20025;-62
2023/11/28 04:08:41;;;;;;;11.38;7.95;;;2.20;99.90;;;;;;5030393;28;20029;-61
2023/11/28 04:11:07;;;;;;;13.73;7.80;;;2.20;99.90;;;;;;5028595;28;20033;-60
2023/11/28 04:13:33;;;;;;;11.65;8.38;;;2.20;99.90;;;;;;5029349;28;20029;-62
2023/11/28 04:15:58;;;;;;;13.45;7.78;;;2.20;99.90;;;;;;5026912;28;20025;-61
2023/11/28 04:18:24;;;;;;;13.48;8.48;;;2.20;99.90;;;;;;5026835;28;20041;-61
2023/11/28 04:20:50;;;;;;;14.57;9.13;;;2.20;99.90;;;;;;5029709;28;20401;-61
2023/11/28 04:23:15;;;;;;;15.20;9.85;;;2.20;99.90;;;;;;5029601;28;20049;-61
2023/11/28 04:25:42;;;;;;;12.40;8.95;;;2.20;99.90;;;;;;5030775;28;20029;-61
2023/11/28 04:28:07;;;;;;;14.98;10.32;;;2.20;99.90;;;;;;5023956;28;20030;-61
2023/11/28 04:30:33;;;;;;;14.05;9.60;;;2.20;99.90;;;;;;5025218;28;20034;-60
2023/11/28 04:32:58;;;;;;;16.13;10.30;;;2.30;99.90;;;;;;5029924;28;20026;-60
2023/11/28 04:35:24;;;;;;;15.25;9.88;;;2.20;99.90;;;;;;5026540;28;20038;-60
2023/11/28 04:37:49;;;;;;;16.38;9.43;;;2.20;99.90;;;;;;5029617;28;20061;-61
2023/11/28 04:40:15;;;;;;;16.98;10.48;;;2.30;99.90;;;;;;5028123;28;20163;-60
2023/11/28 04:42:42;;;;;;;14.65;10.32;;;2.30;99.90;;;;;;5031509;28;20546;-61
2023/11/28 04:45:11;;;;;;;16.85;11.68;;;2.30;99.90;;;;;;5030002;28;20017;-60
2023/11/28 04:47:37;;;;;;;15.65;10.70;;;2.30;99.90;;;;;;5029995;28;20048;-61
2023/11/28 04:50:04;;;;;;;15.23;10.80;;;2.30;99.90;;;;;;5032369;28;20468;-60
2023/11/28 04:52:29;;;;;;;16.60;10.73;;;2.30;99.90;;;;;;5031747;28;20025;-61
2023/11/28 04:54:55;;;;;;;18.50;12.13;;;2.30;99.90;;;;;;5026755;28;20066;-61
2023/11/28 04:57:20;;;;;;;17.63;12.02;;;2.30;99.90;;;;;;5034646;28;20060;-59
2023/11/28 04:59:46;;;;;;;14.85;10.70;;;2.30;99.90;;;;;;5033103;28;20056;-60
2023/11/28 05:02:11;;;;;;;19.13;12.95;;;2.30;99.90;;;;;;5030922;28;20053;-62
2023/11/28 05:04:37;;;;;;;19.10;12.52;;;2.30;99.90;;;;;;5029064;28;20083;-61
2023/11/28 05:07:03;;;;;;;17.83;12.80;;;2.30;99.90;;;;;;5027863;28;20036;-59
2023/11/28 05:09:29;;;;;;;17.65;11.85;;;2.30;99.90;;;;;;5034789;28;20038;-62
2023/11/28 05:11:54;;;;;;;19.55;13.93;;;2.40;99.90;;;;;;5030210;28;20156;-61
2023/11/28 05:14:21;;;;;;;19.30;13.10;;;2.40;99.90;;;;;;5028504;28;20075;-61
2023/11/28 05:16:46;;;;;;;20.58;13.80;;;2.40;99.90;;;;;;5034350;28;20030;-62
2023/11/28 05:19:12;;;;;;;20.33;14.20;;;2.40;99.90;;;;;;5030851;28;20036;-62
2023/11/28 05:21:38;;;;;;;19.77;13.25;;;2.30;99.90;;;;;;5031980;28;20033;-61
2023/11/28 05:24:04;;;;;;;18.70;13.15;;;2.30;99.90;;;;;;5031098;28;20022;-61
2023/11/28 05:26:29;;;;;;;19.95;13.38;;;2.30;99.90;;;;;;5028214;28;20120;-61
2023/11/28 05:28:55;;;;;;;16.95;12.68;;;2.30;99.90;;;;;;5026222;28;20451;-61
2023/11/28 05:31:20;;;;;;;19.25;13.18;;;2.40;99.90;;;;;;5031802;28;20554;-61
2023/11/28 05:33:46;;;;;;;23.23;13.57;;;2.30;99.90;;;;;;5029584;28;20495;-60
2023/11/28 05:36:11;;;;;;;18.38;13.10;;;2.30;99.90;;;;;;5032208;28;20029;-61
2023/11/28 05:38:37;;;;;;;18.95;13.32;;;2.30;99.90;;;;;;5028642;28;20483;-61
2023/11/28 05:41:03;;;;;;;19.33;13.40;;;2.30;99.90;;;;;;5028625;28;20033;-61
2023/11/28 05:43:32;;;;;;;19.05;12.05;;;2.30;99.90;;;;;;5027578;28;20030;-61
2023/11/28 05:45:58;;;;;;;19.17;13.73;;;2.40;99.90;;;;;;5027944;28;20099;-60
2023/11/28 05:48:25;;;;;;;21.90;12.15;;;2.40;99.90;;;;;;5032560;28;20033;-61
2023/11/28 05:50:53;;;;;;;19.20;13.48;;;2.30;99.90;;;;;;5031694;28;20448;-62
2023/11/28 05:53:19;;;;;;;19.48;13.20;;;2.30;99.90;;;;;;5026252;28;20036;-62
2023/11/28 05:55:46;;;;;;;17.48;12.68;;;2.40;99.90;;;;;;5029806;28;20140;-61
2023/11/28 05:58:12;;;;;;;19.00;10.98;;;2.30;99.90;;;;;;5030672;28;20025;-57
2023/11/28 06:00:38;;;;;;;17.88;12.02;;;2.30;99.90;;;;;;5029630;28;20395;-57
2023/11/28 06:03:05;;;;;;;19.90;12.75;;;2.30;99.90;;;;;;5029347;28;20140;-56
2023/11/28 06:05:30;;;;;;;19.40;12.85;;;2.40;99.90;;;;;;5030412;28;20424;-59
2023/11/28 06:07:56;;;;;;;20.73;13.32;;;2.40;99.90;;;;;;5031615;28;20029;-57
2023/11/28 06:10:22;;;;;;;20.05;13.40;;;2.40;99.90;;;;;;5027736;28;20087;-58
2023/11/28 06:12:48;;;;;;;23.73;15.48;;;2.40;99.90;;;;;;5023447;28;20029;-59
2023/11/28 06:15:14;;;;;;;23.38;14.95;;;2.40;99.90;;;;;;5031589;28;20026;-59
2023/11/28 06:17:40;;;;;;;23.02;14.27;;;2.40;99.90;;;;;;5030702;28;20022;-57
2023/11/28 06:20:06;;;;;;;21.80;13.75;;;2.30;99.90;;;;;;5030975;28;20076;-59
2023/11/28 06:22:32;;;;;;;20.10;14.07;;;2.30;99.90;;;;;;5031550;28;20037;-56
2023/11/28 06:24:57;;;;;;;27.90;13.68;;;2.30;99.90;;;;;;5026530;28;20053;-58
2023/11/28 06:27:23;;;;;;;21.85;13.50;;;2.30;99.90;;;;;;5025457;28;20503;-58
2023/11/28 06:29:49;;;;;;;32.22;14.95;;;2.30;99.90;;;;;;5029297;28;20022;-58
2023/11/28 06:32:15;;;;;;;20.38;13.45;;;2.30;99.90;;;;;;5027637;28;20025;-56
2023/11/28 06:34:40;;;;;;;24.60;13.95;;;2.30;99.90;;;;;;5027217;28;20124;-57
2023/11/28 06:37:06;;;;;;;25.08;15.07;;;2.30;99.90;;;;;;5026501;28;20039;-56
2023/11/28 06:39:33;;;;;;;24.98;12.88;;;2.30;99.90;;;;;;5027453;28;20088;-56
2023/11/28 06:42:00;;;;;;;24.67;14.80;;;2.30;99.90;;;;;;5026629;28;20018;-58
2023/11/28 06:44:29;;;;;;;22.00;13.10;;;2.30;99.90;;;;;;5028650;28;20052;-58
2023/11/28 06:46:55;;;;;;;22.17;11.55;;;2.30;99.90;;;;;;5026472;28;20120;-57
2023/11/28 06:49:20;;;;;;;20.13;11.95;;;2.30;99.90;;;;;;5030639;28;20493;-56
2023/11/28 06:51:46;;;;;;;18.63;11.52;;;2.30;99.90;;;;;;5030542;28;20041;-57
2023/11/28 06:54:12;;;;;;;19.52;12.38;;;2.30;99.90;;;;;;5031237;28;20502;-56
2023/11/28 06:56:38;;;;;;;21.05;12.80;;;2.30;99.90;;;;;;5026581;28;20025;-58
2023/11/28 06:59:04;;;;;;;20.90;11.90;;;2.30;99.90;;;;;;5030892;28;20031;-58
2023/11/28 07:01:30;;;;;;;19.13;11.85;;;2.30;99.90;;;;;;5017987;28;20387;-58
2023/11/28 07:03:55;;;;;;;19.42;12.18;;;2.30;99.90;;;;;;5027388;28;20093;-58
2023/11/28 07:06:21;;;;;;;17.83;11.73;;;2.30;99.90;;;;;;5032643;28;20396;-55
2023/11/28 07:08:47;;;;;;;21.23;12.75;;;2.20;99.90;;;;;;5024985;28;20026;-57
2023/11/28 07:11:19;;;;;;;25.92;13.00;;;2.30;99.90;;;;;;5029719;28;20911;-55
2023/11/28 07:13:47;;;;;;;20.85;12.90;;;2.30;99.90;;;;;;5026181;28;20060;-56
2023/11/28 07:16:13;;;;;;;20.48;12.93;;;2.30;99.90;;;;;;5033712;28;20021;-58
2023/11/28 07:18:38;;;;;;;23.98;13.05;;;2.30;99.90;;;;;;5028964;28;20116;-58
2023/11/28 07:21:04;;;;;;;24.13;14.27;;;2.30;99.90;;;;;;5021568;28;20431;-58
2023/11/28 07:23:30;;;;;;;18.38;11.85;;;2.30;99.90;;;;;;5029196;28;20040;-54
2023/11/28 07:25:55;;;;;;;21.42;12.57;;;2.30;99.90;;;;;;5026652;28;20022;-56
2023/11/28 07:28:21;;;;;;;23.98;15.05;;;2.30;99.90;;;;;;5025362;28;20488;-56
2023/11/28 07:30:47;;;;;;;23.25;14.43;;;2.30;99.90;;;;;;5033952;28;20034;-55
2023/11/28 07:33:13;;;;;;;20.35;12.90;;;2.30;99.90;;;;;;5026703;28;20121;-55
2023/11/28 07:35:39;;;;;;;21.17;14.10;;;2.30;99.90;;;;;;5026136;28;20035;-56
2023/11/28 07:38:04;;;;;;;22.10;13.82;;;2.30;99.90;;;;;;5030300;28;20090;-55
2023/11/28 07:40:33;;;;;;;21.98;13.35;;;2.30;99.90;;;;;;5022951;28;20075;-57
2023/11/28 07:42:59;;;;;;;21.00;12.68;;;2.30;99.90;;;;;;5029274;28;20025;-57
2023/11/28 07:45:24;;;;;;;23.08;14.23;;;2.30;99.90;;;;;;5030911;28;20113;-58
2023/11/28 07:47:52;;;;;;;29.48;15.90;;;2.30;99.90;;;;;;5028671;28;20453;-56
2023/11/28 07:50:18;;;;;;;24.77;13.77;;;2.30;99.90;;;;;;5029069;28;20120;-58
2023/11/28 07:52:44;;;;;;;21.35;13.23;;;2.30;99.90;;;;;;5032196;28;20025;-58
2023/11/28 07:55:09;;;;;;;19.40;11.98;;;2.20;99.90;;;;;;5026263;28;20021;-56
2023/11/28 07:57:35;;;;;;;18.83;12.45;;;2.20;99.90;;;;;;5027590;28;20037;-57
2023/11/28 08:00:02;;;;;;;22.35;13.85;;;2.30;99.90;;;;;;5027540;28;20018;-58
2023/11/28 08:02:28;;;;;;;22.15;12.40;;;2.30;99.90;;;;;;5022685;28;20014;-58
2023/11/28 08:04:54;;;;;;;19.52;11.80;;;2.20;99.90;;;;;;5023711;28;20084;-57
2023/11/28 08:07:20;;;;;;;20.45;12.05;;;2.20;99.90;;;;;;5030247;28;20017;-56
2023/11/28 08:09:45;;;;;;;21.10;11.38;;;2.20;99.90;;;;;;5031094;28;20021;-56
2023/11/28 08:12:11;;;;;;;15.07;10.07;;;2.20;99.90;;;;;;5034105;28;20503;-57
2023/11/28 08:14:36;;;;;;;16.60;10.05;;;2.20;99.90;;;;;;5029681;28;20099;-58
2023/11/28 08:17:02;;;;;;;19.50;10.70;;;2.10;99.90;;;;;;5033889;28;20081;-58
2023/11/28 08:19:27;;;;;;;14.70;9.70;;;2.20;99.90;;;;;;5031276;28;20029;-57
2023/11/28 08:21:53;;;;;;;13.38;9.25;;;2.20;99.90;;;;;;5032532;28;20051;-56
2023/11/28 08:24:18;;;;;;;14.45;8.93;;;2.20;99.90;;;;;;5033792;28;20113;-58
2023/11/28 08:26:44;;;;;;;18.38;9.88;;;2.10;99.90;;;;;;5028837;28;20095;-57
2023/11/28 08:29:10;;;;;;;18.13;11.52;;;2.10;99.90;;;;;;5033796;28;20029;-58
2023/11/28 08:31:35;;;;;;;14.95;9.50;;;2.10;99.90;;;;;;5033629;28;20076;-58
2023/11/28 08:34:01;;;;;;;14.70;9.07;;;2.10;99.90;;;;;;5033942;28;20043;-58
2023/11/28 08:36:27;;;;;;;13.75;8.48;;;2.10;99.90;;;;;;5030288;28;20037;-55
2023/11/28 08:38:53;;;;;;;14.40;7.97;;;2.10;99.90;;;;;;5029874;28;20026;-54
2023/11/28 08:41:18;;;;;;;12.65;7.95;;;2.10;99.90;;;;;;5027150;28;20030;-55
2023/11/28 08:43:44;;;;;;;15.52;7.68;;;2.10;99.90;;;;;;5032148;28;20029;-56
2023/11/28 08:46:13;;;;;;;10.48;6.47;;;2.10;99.90;;;;;;5033192;28;20017;-57
2023/11/28 08:48:43;;;;;;;10.55;6.18;;;2.10;99.90;;;;;;5029124;28;20223;-58
2023/11/28 08:51:09;;;;;;;16.50;6.60;;;2.10;99.90;;;;;;5035109;28;20079;-55
2023/11/28 08:53:34;;;;;;;9.57;5.95;;;2.10;99.90;;;;;;5030307;28;20120;-57
2023/11/28 08:56:00;;;;;;;9.02;5.38;;;2.10;99.90;;;;;;5028746;28;20485;-57
2023/11/28 08:58:25;;;;;;;10.18;4.93;;;2.10;99.90;;;;;;5033033;28;20510;-56
2023/11/28 09:00:54;;;;;;;8.80;4.72;;;2.10;99.90;;;;;;5031405;28;20021;-56
2023/11/28 09:03:20;;;;;;;5.07;4.07;;;2.10;99.90;;;;;;5027954;28;20022;-56
2023/11/28 09:05:46;;;;;;;8.75;4.35;;;2.10;99.90;;;;;;5030053;28;20025;-59
2023/11/28 09:08:12;;;;;;;8.18;5.10;;;2.10;99.90;;;;;;5024887;28;20519;-57
2023/11/28 09:10:38;;;;;;;5.53;4.88;;;2.10;99.90;;;;;;5028793;28;20029;-55
2023/11/28 09:13:04;;;;;;;10.43;5.10;;;2.00;99.90;;;;;;5026588;28;20369;-54
2023/11/28 09:15:29;;;;;;;6.60;4.53;;;2.00;99.90;;;;;;5032755;28;20042;-54
2023/11/28 09:17:55;;;;;;;11.75;4.95;;;2.10;99.90;;;;;;5030048;28;20026;-55
2023/11/28 09:20:21;;;;;;;10.68;4.63;;;2.10;99.90;;;;;;5031449;28;20018;-54
2023/11/28 09:22:47;;;;;;;7.38;4.78;;;2.10;99.90;;;;;;5029376;28;20049;-56
2023/11/28 09:25:14;;;;;;;9.93;4.72;;;2.20;99.90;;;;;;5030667;28;20010;-55
2023/11/28 09:27:40;;;;;;;6.32;4.38;;;2.20;99.90;;;;;;5031541;28;20520;-54
2023/11/28 09:30:06;;;;;;;5.68;4.20;;;2.20;99.90;;;;;;5031564;28;20104;-57
2023/11/28 09:32:32;;;;;;;7.25;4.10;;;2.20;99.90;;;;;;5031890;28;20369;-56
2023/11/28 09:34:57;;;;;;;6.45;4.88;;;2.20;99.90;;;;;;5029693;28;20025;-57
2023/11/28 09:37:23;;;;;;;6.65;3.97;;;2.20;99.90;;;;;;5023426;28;20037;-55
2023/11/28 09:39:49;;;;;;;6.53;4.03;;;2.30;99.90;;;;;;5027887;28;20028;-57
2023/11/28 09:42:15;;;;;;;6.63;3.70;;;2.30;99.90;;;;;;5023204;28;20032;-54
2023/11/28 09:44:45;;;;;;;4.00;3.10;;;2.20;99.90;;;;;;5026990;28;20400;-55
2023/11/28 09:47:11;;;;;;;4.13;3.20;;;2.20;99.90;;;;;;5036939;28;20017;-56
2023/11/28 09:49:45;;;;;;;3.30;2.85;;;2.20;99.90;;;;;;5032558;28;20392;-54
2023/11/28 09:52:13;;;;;;;3.30;2.13;;;2.10;99.90;;;;;;5023951;28;20443;-54
2023/11/28 09:54:39;;;;;;;5.63;3.47;;;2.20;99.90;;;;;;5030897;28;20503;-54
2023/11/28 09:57:07;;;;;;;4.25;3.15;;;2.20;99.90;;;;;;5026237;28;20400;-54
2023/11/28 09:59:38;;;;;;;4.43;2.88;;;2.20;99.90;;;;;;5037452;28;20451;-57
2023/11/28 10:02:07;;;;;;;4.15;2.83;;;2.20;99.90;;;;;;5023132;28;20025;-56
2023/11/28 10:04:34;;;;;;;4.60;2.90;;;2.10;99.90;;;;;;5027653;28;20044;-57
2023/11/28 10:07:06;;;;;;;4.32;2.70;;;2.10;99.90;;;;;;5026038;28;20459;-53
2023/11/28 10:09:32;;;;;;;4.90;3.35;;;2.10;99.90;;;;;;5031506;28;20059;-54
2023/11/28 10:12:03;;;;;;;3.83;2.80;;;2.10;99.90;;;;;;5032448;28;20033;-54
2023/11/28 10:14:29;;;;;;;6.43;3.72;;;2.20;99.90;;;;;;5036638;28;20039;-55
2023/11/28 10:16:54;;;;;;;5.80;4.18;;;2.30;99.90;;;;;;5035469;28;20148;-55
2023/11/28 10:19:21;;;;;;;7.88;3.47;;;2.40;99.90;;;;;;5022746;28;20033;-56
2023/11/28 10:21:48;;;;;;;6.88;3.25;;;2.40;99.90;;;;;;5027067;28;20021;-54
2023/11/28 10:24:14;;;;;;;5.50;2.97;;;2.50;99.90;;;;;;5028746;28;20617;-56
2023/11/28 10:26:40;;;;;;;4.60;2.97;;;2.40;99.90;;;;;;5032473;28;20022;-56
2023/11/28 10:29:06;;;;;;;4.30;3.10;;;2.40;99.90;;;;;;5036446;28;20368;-54
2023/11/28 10:31:41;;;;;;;3.22;2.67;;;2.40;99.90;;;;;;5030845;28;20025;-55
2023/11/28 10:34:10;;;;;;;5.70;2.90;;;2.50;99.90;;;;;;5023158;28;20594;-56
2023/11/28 10:36:43;;;;;;;4.93;2.42;;;2.50;99.90;;;;;;5023258;28;20064;-56
2023/11/28 10:39:10;;;;;;;3.75;2.38;;;2.60;99.90;;;;;;5022851;28;20080;-55
2023/11/28 10:41:37;;;;;;;2.97;2.35;;;2.60;99.90;;;;;;5024959;28;20033;-54
2023/11/28 10:44:03;;;;;;;5.00;3.10;;;2.60;99.90;;;;;;5022907;28;20105;-54
2023/11/28 10:46:32;;;;;;;6.80;3.08;;;2.60;99.90;;;;;;5026915;28;20117;-55
2023/11/28 10:48:59;;;;;;;5.20;3.00;;;2.60;99.90;;;;;;5027074;28;20029;-57
2023/11/28 10:51:27;;;;;;;3.58;2.80;;;2.70;99.90;;;;;;5027149;28;20068;-54
2023/11/28 10:53:56;;;;;;;4.65;2.85;;;2.70;99.90;;;;;;5027803;28;20029;-58
2023/11/28 10:56:22;;;;;;;6.00;2.67;;;2.70;99.90;;;;;;5028605;28;20034;-55
2023/11/28 10:58:48;;;;;;;5.18;2.95;;;2.70;99.90;;;;;;5028000;28;20051;-57
2023/11/28 11:01:15;;;;;;;5.40;2.75;;;2.70;99.90;;;;;;5028702;28;20033;-54
2023/11/28 11:03:42;;;;;;;3.03;2.33;;;2.70;99.90;;;;;;5024698;28;20636;-57
2023/11/28 11:06:09;;;;;;;4.63;2.80;;;2.70;99.90;;;;;;5025843;28;20066;-57
2023/11/28 11:08:36;;;;;;;5.28;2.40;;;2.70;99.90;;;;;;5020015;28;20039;-56
2023/11/28 11:11:02;;;;;;;4.03;2.40;;;2.70;99.90;;;;;;5024118;28;20036;-57
2023/11/28 11:13:56;;;;;;;3.47;2.13;;;2.80;99.90;;;;;;5025484;28;20545;-57
2023/11/28 11:16:35;;;;;;;4.93;2.95;;;2.90;99.90;;;;;;5027130;28;20496;-55
2023/11/28 11:19:01;;;;;;;3.67;2.58;;;2.90;99.90;;;;;;5029034;28;20041;-57
2023/11/28 11:21:49;;;;;;;2.72;1.98;;;3.00;99.90;;;;;;5031027;28;20030;-57
2023/11/28 11:24:18;;;;;;;3.80;2.40;;;3.00;99.90;;;;;;5028550;28;20033;-58
2023/11/28 11:26:51;;;;;;;3.92;2.45;;;3.00;99.90;;;;;;5032669;28;20022;-55
2023/11/28 11:29:25;;;;;;;2.63;2.10;;;3.00;99.90;;;;;;5027994;28;20025;-57
2023/11/28 11:31:52;;;;;;;6.70;2.65;;;3.10;99.90;;;;;;5024084;28;20124;-57
2023/11/28 11:34:40;;;;;;;6.95;2.60;;;3.10;99.90;;;;;;5024072;28;20028;-55
2023/11/28 11:37:13;;;;;;;3.95;2.72;;;3.20;99.90;;;;;;5026685;28;20049;-58
2023/11/28 11:39:44;;;;;;;4.33;2.27;;;3.50;99.90;;;;;;5028037;28;20029;-56
2023/11/28 11:42:17;;;;;;;5.80;2.38;;;3.70;99.90;;;;;;5026214;28;20033;-57
2023/11/28 11:44:51;;;;;;;4.93;2.80;;;3.80;99.90;;;;;;5033352;28;20036;-55
2023/11/28 11:47:25;;;;;;;4.78;2.65;;;3.80;99.90;;;;;;5029904;28;20021;-54
2023/11/28 11:49:52;;;;;;;4.05;2.90;;;3.80;99.90;;;;;;5031000;28;20091;-55
2023/11/28 11:52:20;;;;;;;4.22;2.53;;;3.70;99.90;;;;;;5029280;28;20125;-54
2023/11/28 11:54:46;;;;;;;4.70;2.95;;;3.60;99.90;;;;;;5026900;28;20069;-55
2023/11/28 11:57:13;;;;;;;4.25;2.50;;;3.50;99.90;;;;;;5031418;28;20026;-58
2023/11/28 11:59:41;;;;;;;7.82;2.90;;;3.50;99.90;;;;;;5033825;28;20495;-55
2023/11/28 12:02:08;;;;;;;3.95;2.35;;;3.40;99.90;;;;;;5026962;28;20052;-57
2023/11/28 12:04:43;;;;;;;3.45;2.33;;;3.40;99.90;;;;;;5035560;28;20069;-58
2023/11/28 12:07:13;;;;;;;3.35;2.17;;;3.40;99.90;;;;;;5031304;28;20022;-57
2023/11/28 12:09:40;;;;;;;6.47;2.30;;;3.30;99.90;;;;;;5033743;28;20557;-56
2023/11/28 12:12:08;;;;;;;3.47;2.50;;;3.30;99.90;;;;;;5032465;28;20037;-57
2023/11/28 12:14:37;;;;;;;2.90;1.90;;;3.30;99.90;;;;;;5028834;28;20072;-56
2023/11/28 12:17:04;;;;;;;4.15;1.88;;;3.30;99.90;;;;;;5033055;28;20116;-57
2023/11/28 12:19:30;;;;;;;5.25;1.77;;;3.30;99.90;;;;;;5031043;28;20722;-56
2023/11/28 12:21:57;;;;;;;2.67;1.83;;;3.30;99.90;;;;;;5026707;28;20072;-55
2023/11/28 12:24:23;;;;;;;4.88;1.88;;;3.30;99.90;;;;;;5030264;28;20387;-57
2023/11/28 12:26:49;;;;;;;1.60;1.42;;;3.30;99.90;;;;;;5029942;28;20025;-54
2023/11/28 12:29:15;;;;;;;2.33;1.70;;;3.20;99.90;;;;;;5028797;28;20491;-57
2023/11/28 12:31:41;;;;;;;3.08;1.65;;;3.20;99.90;;;;;;5019663;28;20033;-57
2023/11/28 12:34:07;;;;;;;1.77;1.55;;;3.20;99.90;;;;;;5021635;28;20029;-56
2023/11/28 12:36:33;;;;;;;2.55;1.95;;;3.30;99.90;;;;;;5028458;28;20044;-58
2023/11/28 12:39:00;;;;;;;2.17;1.65;;;3.30;99.90;;;;;;5029241;28;20395;-57
2023/11/28 12:41:38;;;;;;;2.90;1.92;;;3.30;99.90;;;;;;5024692;28;20029;-55